Time;durP1;ratioP1;P1;durP2;ratioP2;P2;SDS_P1;SDS_P2;PMS_P1;PMS_P2;Temp;Humidity;BMP_temperature;BMP_pressure;BME280_temperature;BME280_humidity;BME280_pressure;Samples;Min_cycle;Max_cycle;Signal;HPM_P1;HPM_P2
2021/12/24 00:00:40;;;;;;;;;;;10.40;96.90;;;;;;5020991;28;20108;-86
2021/12/24 00:03:07;;;;;;;;;;;10.50;97.10;;;;;;5029462;28;19922;-85
2021/12/24 00:05:34;;;;;;;;;;;10.50;97.00;;;;;;5019908;28;20022;-85
2021/12/24 00:08:02;;;;;;;;;;;10.50;97.00;;;;;;5038056;28;19908;-85
2021/12/24 00:10:31;;;;;;;;;;;10.50;97.00;;;;;;5031808;28;20305;-85
2021/12/24 00:13:06;;;;;;;;;;;10.50;96.90;;;;;;5028241;28;19917;-86
2021/12/24 00:16:03;;;;;;;;;;;10.60;97.00;;;;;;5024368;28;19908;-85
2021/12/24 00:37:10;;;;;;;;;;;10.60;96.60;;;;;;5024521;28;19919;-85
2021/12/24 00:39:46;;;;;;;;;;;10.60;96.70;;;;;;5033768;28;19935;-85
2021/12/24 00:42:14;;;;;;;;;;;10.70;97.00;;;;;;5025337;28;20385;-85
2021/12/24 00:44:40;;;;;;;;;;;10.70;96.70;;;;;;5034012;28;19919;-85
2021/12/24 00:47:07;;;;;;;;;;;10.70;96.70;;;;;;5011888;28;19909;-84
2021/12/24 00:49:34;;;;;;;;;;;10.70;96.60;;;;;;5026403;28;19955;-85
2021/12/24 00:52:19;;;;;;;;;;;10.70;96.60;;;;;;5024487;28;19909;-86
2021/12/24 00:57:33;;;;;;;;;;;10.70;96.60;;;;;;5020329;28;19927;-84
2021/12/24 01:00:00;;;;;;;;;;;10.80;96.70;;;;;;5024521;28;19916;-84
2021/12/24 01:02:27;;;;;;;;;;;10.70;96.60;;;;;;5023533;28;20415;-86
2021/12/24 01:04:54;;;;;;;;;;;10.80;96.70;;;;;;5027941;28;19913;-85
2021/12/24 01:07:20;;;;;;;;;;;10.80;96.70;;;;;;5014620;28;20627;-84
2021/12/24 01:09:47;;;;;;;;;;;10.80;96.60;;;;;;5041004;28;19908;-84
2021/12/24 01:12:14;;;;;;;;;;;10.80;96.50;;;;;;5029925;28;19913;-85
2021/12/24 01:14:43;;;;;;;;;;;10.80;96.60;;;;;;5025658;28;19919;-84
2021/12/24 01:17:20;;;;;;;;;;;10.80;96.60;;;;;;5023548;28;19923;-85
2021/12/24 01:19:49;;;;;;;;;;;10.80;96.60;;;;;;5036553;28;20276;-85
2021/12/24 01:25:19;;;;;;;;;;;10.80;96.60;;;;;;5015090;28;20383;-85
2021/12/24 01:44:11;;;;;;;;;;;10.90;96.60;;;;;;5020100;28;19919;-84
2021/12/24 01:46:37;;;;;;;;;;;10.90;96.60;;;;;;5037755;28;19909;-85
2021/12/24 01:49:04;;;;;;;;;;;10.90;96.60;;;;;;5015841;28;19923;-84
2021/12/24 01:51:31;;;;;;;;;;;11.00;96.70;;;;;;5031398;28;19908;-85
2021/12/24 01:53:58;;;;;;;;;;;11.00;96.70;;;;;;5019118;28;20374;-84
2021/12/24 01:56:25;;;;;;;;;;;11.00;96.70;;;;;;5018581;28;20106;-85
2021/12/24 01:58:52;;;;;;;;;;;11.00;96.60;;;;;;5035150;28;19919;-84
2021/12/24 02:01:19;;;;;;;;;;;11.00;96.60;;;;;;5016524;28;19923;-84
2021/12/24 02:03:46;;;;;;;;;;;11.10;96.60;;;;;;5020456;28;19919;-83
2021/12/24 02:06:12;;;;;;;;;;;11.10;96.50;;;;;;5023838;28;19909;-83
2021/12/24 02:08:39;;;;;;;;;;;11.10;96.60;;;;;;5025947;28;19914;-84
2021/12/24 02:11:06;;;;;;;;;;;11.10;96.70;;;;;;5020298;28;19909;-85
2021/12/24 02:13:33;;;;;;;;;;;11.10;96.70;;;;;;5032366;28;19917;-83
2021/12/24 02:16:14;;;;;;;;;;;11.10;96.70;;;;;;5031789;28;19909;-83
2021/12/24 02:29:55;;;;;;;;;;;11.20;96.70;;;;;;5031695;28;19916;-84
2021/12/24 02:32:22;;;;;;;;;;;11.20;96.70;;;;;;5017598;28;20453;-83
2021/12/24 02:34:49;;;;;;;;;;;11.20;96.70;;;;;;5017115;28;19913;-83
2021/12/24 02:37:16;;;;;;;;;;;11.20;96.70;;;;;;5028791;28;20018;-84
2021/12/24 02:39:43;;;;;;;;;;;11.20;96.60;;;;;;5033805;28;19913;-85
2021/12/24 02:42:20;;;;;;;;;;;11.20;96.70;;;;;;5014456;28;20300;-84
2021/12/24 02:44:48;;;;;;;;;;;11.30;96.70;;;;;;5034024;28;19940;-83
2021/12/24 02:55:06;;;;;;;;;;;11.30;96.60;;;;;;5022064;28;19917;-83
2021/12/24 02:57:35;;;;;;;;;;;11.30;96.60;;;;;;5020405;28;19917;-84
2021/12/24 03:00:12;;;;;;;;;;;11.30;96.70;;;;;;5031869;28;19908;-84
2021/12/24 03:02:39;;;;;;;;;;;11.40;96.70;;;;;;5031824;28;20399;-84
2021/12/24 03:05:07;;;;;;;;;;;11.30;96.70;;;;;;5024614;28;19920;-83
2021/12/24 03:07:34;;;;;;;;;;;11.30;96.60;;;;;;5023062;28;20094;-83
2021/12/24 03:10:02;;;;;;;;;;;11.40;96.70;;;;;;5046357;28;19908;-84
2021/12/24 03:12:30;;;;;;;;;;;11.40;96.70;;;;;;5007153;28;20038;-84
2021/12/24 03:14:57;;;;;;;;;;;11.40;96.70;;;;;;5034129;28;20332;-84
2021/12/24 03:17:26;;;;;;;;;;;11.40;96.60;;;;;;5027116;28;20316;-83
2021/12/24 03:19:56;;;;;;;;;;;11.40;96.70;;;;;;5022840;28;19908;-84
2021/12/24 03:22:37;;;;;;;;;;;11.40;96.70;;;;;;5020070;28;20546;-88
2021/12/24 03:25:04;;;;;;;;;;;11.40;96.70;;;;;;5029179;28;19921;-83
2021/12/24 03:27:31;;;;;;;;;;;11.40;96.70;;;;;;5007543;28;20197;-84
2021/12/24 03:29:58;;;;;;;;;;;11.40;96.50;;;;;;5019421;28;20361;-83
2021/12/24 03:32:25;;;;;;;;;;;11.50;96.60;;;;;;5023201;28;19917;-84
2021/12/24 03:34:52;;;;;;;;;;;11.50;96.60;;;;;;5023224;28;20199;-84
2021/12/24 03:37:19;;;;;;;;;;;11.50;96.50;;;;;;5013936;28;20405;-84
2021/12/24 03:39:46;;;;;;;;;;;11.50;96.60;;;;;;5027777;28;19909;-84
2021/12/24 03:42:12;;;;;;;;;;;11.50;96.50;;;;;;5025296;28;19920;-83
2021/12/24 03:44:50;;;;;;;;;;;11.40;96.50;;;;;;5023851;28;19920;-83
2021/12/24 03:47:19;;;;;;;;;;;11.50;96.60;;;;;;5025371;28;19954;-83
2021/12/24 03:54:59;;;;;;;;;;;11.50;96.50;;;;;;5026095;28;19913;-83
2021/12/24 03:57:30;;;;;;;;;;;11.50;96.50;;;;;;5019040;28;19913;-83
2021/12/24 03:59:59;;;;;;;;;;;11.50;96.60;;;;;;5016122;28;20043;-85
2021/12/24 04:02:26;;;;;;;;;;;11.50;96.60;;;;;;5021340;28;20207;-83
2021/12/24 04:04:53;;;;;;;;;;;11.50;96.60;;;;;;5028098;28;19923;-86
2021/12/24 04:07:20;;;;;;;;;;;11.50;96.40;;;;;;5005763;28;22417;-83
2021/12/24 04:09:56;;;;;;;;;;;11.50;96.50;;;;;;5024855;28;19905;-88
2021/12/24 04:12:23;;;;;;;;;;;11.50;96.40;;;;;;5030281;28;20051;-83
2021/12/24 04:14:51;;;;;;;;;;;11.50;96.40;;;;;;5025337;28;19915;-83
2021/12/24 04:17:17;;;;;;;;;;;11.50;96.50;;;;;;5015096;28;21028;-83
2021/12/24 04:25:35;;;;;;;;;;;11.50;96.50;;;;;;4991801;28;20170;-84
2021/12/24 04:28:02;;;;;;;;;;;11.50;96.50;;;;;;4993647;28;20143;-84
2021/12/24 04:30:38;;;;;;;;;;;11.50;96.50;;;;;;5014487;28;21066;-84
2021/12/24 04:33:14;;;;;;;;;;;11.50;96.50;;;;;;5025514;28;19924;-86
2021/12/24 04:35:46;;;;;;;;;;;11.50;96.50;;;;;;5022200;28;19909;-83
2021/12/24 04:51:47;;;;;;;;;;;11.50;96.40;;;;;;5022265;28;19923;-83
2021/12/24 05:02:51;;;;;;;;;;;11.50;96.50;;;;;;5008077;28;19939;-84
2021/12/24 05:05:22;;;;;;;;;;;11.50;96.50;;;;;;5027037;28;20451;-84
2021/12/24 05:10:18;;;;;;;;;;;11.50;96.50;;;;;;5015890;28;19909;-83
2021/12/24 05:12:45;;;;;;;;;;;11.50;96.50;;;;;;5020422;28;20385;-84
2021/12/24 05:15:12;;;;;;;;;;;11.50;96.60;;;;;;5024043;28;19909;-83
2021/12/24 05:18:05;;;;;;;;;;;11.50;96.60;;;;;;5016150;28;20254;-83
2021/12/24 05:23:17;;;;;;;;;;;11.50;96.50;;;;;;5016274;28;20328;-83
2021/12/24 05:25:45;;;;;;;;;;;11.50;96.50;;;;;;5034810;28;20153;-83
2021/12/24 05:28:13;;;;;;;;;;;11.50;96.50;;;;;;5015544;28;19999;-83
2021/12/24 05:30:40;;;;;;;;;;;11.50;96.60;;;;;;5022610;28;20500;-83
2021/12/24 05:33:11;;;;;;;;;;;11.50;96.60;;;;;;5008632;28;20423;-83
2021/12/24 05:35:38;;;;;;;;;;;11.50;96.60;;;;;;5021100;28;19909;-83
2021/12/24 05:38:05;;;;;;;;;;;11.50;96.50;;;;;;5022547;28;19913;-83
2021/12/24 05:40:32;;;;;;;;;;;11.50;96.50;;;;;;5015296;28;20185;-84
2021/12/24 05:42:59;;;;;;;;;;;11.50;96.50;;;;;;5016787;28;20290;-83
2021/12/24 05:45:26;;;;;;;;;;;11.50;96.30;;;;;;5027595;28;20105;-83
2021/12/24 05:47:52;;;;;;;;;;;11.50;96.50;;;;;;5025274;28;19913;-83
2021/12/24 05:50:19;;;;;;;;;;;11.50;96.40;;;;;;5010071;28;19915;-83
2021/12/24 05:52:46;;;;;;;;;;;11.50;96.50;;;;;;5024253;28;20213;-83
2021/12/24 05:55:13;;;;;;;;;;;11.50;96.50;;;;;;5023018;28;19909;-83
2021/12/24 05:57:40;;;;;;;;;;;11.50;96.50;;;;;;5026201;28;19912;-83
2021/12/24 06:00:08;;;;;;;;;;;11.50;96.40;;;;;;5026919;28;19939;-83
2021/12/24 06:02:35;;;;;;;;;;;11.50;96.30;;;;;;5009807;28;20280;-83
2021/12/24 06:05:02;;;;;;;;;;;11.50;96.50;;;;;;5019439;28;19909;-83
2021/12/24 06:07:29;;;;;;;;;;;11.50;96.40;;;;;;5043904;28;20480;-83
2021/12/24 06:09:56;;;;;;;;;;;11.50;96.50;;;;;;5020069;28;19934;-83
2021/12/24 06:12:23;;;;;;;;;;;11.50;96.40;;;;;;5032983;28;19909;-83
2021/12/24 06:14:54;;;;;;;;;;;11.50;96.40;;;;;;5022302;28;20424;-83
2021/12/24 06:17:22;;;;;;;;;;;11.50;96.40;;;;;;5031252;28;19915;-83
2021/12/24 06:19:49;;;;;;;;;;;11.50;96.50;;;;;;5017988;28;20002;-83
2021/12/24 06:22:16;;;;;;;;;;;11.50;96.50;;;;;;5028245;28;19916;-83
2021/12/24 06:24:43;;;;;;;;;;;11.50;96.50;;;;;;5020000;28;20221;-83
2021/12/24 06:27:10;;;;;;;;;;;11.50;96.40;;;;;;5035911;28;20164;-83
2021/12/24 06:29:37;;;;;;;;;;;11.50;96.40;;;;;;5023212;28;20380;-83
2021/12/24 06:32:04;;;;;;;;;;;11.50;96.40;;;;;;5031902;28;20340;-83
2021/12/24 06:34:31;;;;;;;;;;;11.50;96.40;;;;;;5027370;28;19913;-84
2021/12/24 06:36:59;;;;;;;;;;;11.50;96.40;;;;;;5026951;28;20240;-83
2021/12/24 06:39:26;;;;;;;;;;;11.50;96.40;;;;;;5025507;28;20123;-83
2021/12/24 06:41:54;;;;;;;;;;;11.50;96.30;;;;;;5016758;28;19909;-83
2021/12/24 06:44:21;;;;;;;;;;;11.50;96.30;;;;;;5047945;28;20384;-83
2021/12/24 06:46:49;;;;;;;;;;;11.50;96.30;;;;;;5020862;28;20424;-83
2021/12/24 06:49:15;;;;;;;;;;;11.50;96.30;;;;;;5029304;28;19909;-83
2021/12/24 06:51:42;;;;;;;;;;;11.50;96.30;;;;;;5014150;28;21257;-87
2021/12/24 06:54:10;;;;;;;;;;;11.50;96.30;;;;;;5019146;28;20262;-83
2021/12/24 06:56:38;;;;;;;;;;;11.50;96.30;;;;;;5016072;28;20039;-83
2021/12/24 06:59:04;;;;;;;;;;;11.50;96.30;;;;;;5017137;28;19912;-84
2021/12/24 07:01:31;;;;;;;;;;;11.50;96.30;;;;;;5012998;28;19909;-83
2021/12/24 07:03:58;;;;;;;;;;;11.50;96.30;;;;;;5029811;28;19909;-83
2021/12/24 07:06:25;;;;;;;;;;;11.50;96.30;;;;;;5006129;28;19912;-82
2021/12/24 07:08:52;;;;;;;;;;;11.50;96.40;;;;;;5032171;28;20104;-83
2021/12/24 07:11:19;;;;;;;;;;;11.50;96.40;;;;;;5030252;28;20443;-83
2021/12/24 07:13:46;;;;;;;;;;;11.50;96.50;;;;;;5002329;28;19932;-84
2021/12/24 07:16:13;;;;;;;;;;;11.50;96.40;;;;;;5025786;28;20241;-83
2021/12/24 07:18:40;;;;;;;;;;;11.50;96.50;;;;;;5010512;28;19909;-83
2021/12/24 07:21:07;;;;;;;;;;;11.50;96.50;;;;;;5022062;28;19904;-83
2021/12/24 07:23:33;;;;;;;;;;;11.50;96.50;;;;;;5028455;28;19909;-83
2021/12/24 07:26:01;;;;;;;;;;;11.50;96.50;;;;;;5033869;28;19915;-83
2021/12/24 07:28:27;;;;;;;;;;;11.50;96.50;;;;;;5023107;28;20004;-84
2021/12/24 07:30:55;;;;;;;;;;;11.50;96.50;;;;;;5025681;28;20575;-83
2021/12/24 07:33:21;;;;;;;;;;;11.50;96.40;;;;;;5021511;28;19923;-83
2021/12/24 07:35:48;;;;;;;;;;;11.50;96.30;;;;;;5025405;28;19917;-84
2021/12/24 07:38:15;;;;;;;;;;;11.50;96.40;;;;;;5014644;28;19924;-85
2021/12/24 07:40:43;;;;;;;;;;;11.50;96.40;;;;;;5021401;28;19994;-85
2021/12/24 07:43:10;;;;;;;;;;;11.50;96.30;;;;;;5019187;28;19908;-83
2021/12/24 07:45:39;;;;;;;;;;;11.50;96.30;;;;;;5019071;28;20065;-83
2021/12/24 07:48:15;;;;;;;;;;;11.50;96.20;;;;;;5029637;28;19912;-83
2021/12/24 07:53:12;;;;;;;;;;;11.50;96.20;;;;;;5006088;28;19912;-83
2021/12/24 07:55:39;;;;;;;;;;;11.50;96.30;;;;;;5017797;28;20109;-83
2021/12/24 07:58:07;;;;;;;;;;;11.50;96.30;;;;;;5028906;28;20251;-83
2021/12/24 08:00:38;;;;;;;;;;;11.50;96.30;;;;;;5018744;28;20133;-83
2021/12/24 08:03:05;;;;;;;;;;;11.50;96.30;;;;;;5024528;28;19919;-83
2021/12/24 08:05:33;;;;;;;;;;;11.50;96.40;;;;;;5024000;28;19908;-84
2021/12/24 08:08:00;;;;;;;;;;;11.50;96.20;;;;;;5028119;28;19935;-83
2021/12/24 08:10:30;;;;;;;;;;;11.50;96.30;;;;;;5007969;28;20390;-83
2021/12/24 08:12:56;;;;;;;;;;;11.50;96.20;;;;;;5028286;28;20313;-84
2021/12/24 08:15:23;;;;;;;;;;;11.50;96.00;;;;;;5014432;28;19908;-83
2021/12/24 08:17:50;;;;;;;;;;;11.50;96.10;;;;;;5030860;28;20136;-83
2021/12/24 08:20:22;;;;;;;;;;;11.50;96.10;;;;;;5013861;28;19909;-83
2021/12/24 08:22:50;;;;;;;;;;;11.50;96.10;;;;;;5030025;28;19916;-83
2021/12/24 08:25:17;;;;;;;;;;;11.50;96.10;;;;;;5013099;28;19928;-83
2021/12/24 08:27:44;;;;;;;;;;;11.50;96.10;;;;;;5027937;28;19922;-83
2021/12/24 08:30:11;;;;;;;;;;;11.50;96.10;;;;;;5030802;28;19912;-83
2021/12/24 08:32:40;;;;;;;;;;;11.40;96.10;;;;;;5019608;28;20098;-82
2021/12/24 08:35:08;;;;;;;;;;;11.40;96.10;;;;;;5017622;28;19912;-83
2021/12/24 08:37:35;;;;;;;;;;;11.40;96.10;;;;;;5027395;28;20373;-83
2021/12/24 08:40:03;;;;;;;;;;;11.40;96.10;;;;;;5027008;28;19931;-84
2021/12/24 08:42:30;;;;;;;;;;;11.40;96.20;;;;;;5009525;28;20546;-83
2021/12/24 08:44:57;;;;;;;;;;;11.50;96.30;;;;;;5027944;28;19909;-83
2021/12/24 08:47:24;;;;;;;;;;;11.40;96.30;;;;;;5019601;28;19938;-83
2021/12/24 08:49:50;;;;;;;;;;;11.40;96.30;;;;;;5024026;28;19917;-83
2021/12/24 08:52:17;;;;;;;;;;;11.50;96.40;;;;;;5024748;28;19909;-83
2021/12/24 08:54:45;;;;;;;;;;;11.50;96.30;;;;;;5024196;28;19912;-83
2021/12/24 08:57:11;;;;;;;;;;;11.50;96.20;;;;;;5010312;28;19909;-83
2021/12/24 08:59:38;;;;;;;;;;;11.50;96.30;;;;;;5034100;28;19908;-83
2021/12/24 09:02:05;;;;;;;;;;;11.50;96.40;;;;;;5025797;28;19915;-84
2021/12/24 09:04:32;;;;;;;;;;;11.50;96.40;;;;;;5011572;28;20074;-83
2021/12/24 09:06:59;;;;;;;;;;;11.50;96.40;;;;;;5027546;28;19915;-82
2021/12/24 09:09:27;;;;;;;;;;;11.50;96.60;;;;;;5029978;28;19917;-84
2021/12/24 09:11:54;;;;;;;;;;;11.50;96.10;;;;;;5019904;28;19913;-83
2021/12/24 09:14:21;;;;;;;;;;;11.50;95.90;;;;;;5012885;28;20362;-82
2021/12/24 09:16:48;;;;;;;;;;;11.50;95.50;;;;;;5020499;28;19916;-83
2021/12/24 09:19:20;;;;;;;;;;;11.50;95.90;;;;;;5012638;28;19909;-83
2021/12/24 09:21:47;;;;;;;;;;;11.50;95.90;;;;;;5029759;28;19920;-83
2021/12/24 09:24:16;;;;;;;;;;;11.50;95.90;;;;;;5026259;28;20365;-83
2021/12/24 09:26:43;;;;;;;;;;;11.50;96.10;;;;;;5019194;28;19916;-83
2021/12/24 09:29:11;;;;;;;;;;;11.40;96.00;;;;;;5027275;28;19913;-83
2021/12/24 09:31:38;;;;;;;;;;;11.40;95.80;;;;;;5032329;28;20116;-83
2021/12/24 09:34:05;;;;;;;;;;;11.40;95.90;;;;;;5035867;28;20357;-83
2021/12/24 09:36:32;;;;;;;;;;;11.40;95.80;;;;;;5021314;28;19909;-84
2021/12/24 09:39:01;;;;;;;;;;;11.40;95.80;;;;;;5019670;28;19920;-83
2021/12/24 09:41:28;;;;;;;;;;;11.40;95.70;;;;;;5011639;28;20283;-84
2021/12/24 09:43:58;;;;;;;;;;;11.40;95.80;;;;;;5018119;28;19912;-83
2021/12/24 09:46:28;;;;;;;;;;;11.40;95.40;;;;;;5020742;28;20478;-83
2021/12/24 09:48:55;;;;;;;;;;;11.40;95.80;;;;;;5022230;28;19916;-83
2021/12/24 09:51:25;;;;;;;;;;;11.40;95.60;;;;;;5013554;28;19913;-84
2021/12/24 09:53:53;;;;;;;;;;;11.40;95.60;;;;;;5015328;28;19923;-83
2021/12/24 09:56:20;;;;;;;;;;;11.40;95.60;;;;;;5018403;28;19913;-83
2021/12/24 09:58:47;;;;;;;;;;;11.40;95.80;;;;;;5016317;28;19913;-83
2021/12/24 10:01:44;;;;;;;;;;;11.40;95.90;;;;;;5024011;28;19912;-84
2021/12/24 10:04:15;;;;;;;;;;;11.50;96.00;;;;;;4990902;28;19936;-84
2021/12/24 10:06:52;;;;;;;;;;;11.50;96.10;;;;;;5002068;28;20408;-83
2021/12/24 10:09:20;;;;;;;;;;;11.50;96.30;;;;;;5027764;28;20377;-83
2021/12/24 10:11:54;;;;;;;;;;;11.50;96.00;;;;;;5017227;28;19917;-83
2021/12/24 10:14:27;;;;;;;;;;;11.60;96.20;;;;;;5004207;28;19920;-83
2021/12/24 10:16:54;;;;;;;;;;;11.60;96.00;;;;;;5035536;28;19916;-84
2021/12/24 10:19:21;;;;;;;;;;;11.60;96.10;;;;;;5007185;28;19916;-83
2021/12/24 10:21:56;;;;;;;;;;;11.60;95.90;;;;;;5012985;28;20185;-84
2021/12/24 10:24:26;;;;;;;;;;;11.60;95.90;;;;;;5017105;28;19912;-85
2021/12/24 10:26:54;;;;;;;;;;;11.60;95.80;;;;;;5010864;28;19917;-83
2021/12/24 10:29:27;;;;;;;;;;;11.60;95.90;;;;;;5009593;28;19912;-83
2021/12/24 10:31:55;;;;;;;;;;;11.50;95.90;;;;;;5014913;28;21406;-83
2021/12/24 10:34:26;;;;;;;;;;;11.60;95.80;;;;;;5016012;28;20384;-84
2021/12/24 10:36:57;;;;;;;;;;;11.50;95.90;;;;;;5012219;28;19928;-84
2021/12/24 10:39:27;;;;;;;;;;;11.50;95.80;;;;;;5020418;28;19919;-84
2021/12/24 10:41:55;;;;;;;;;;;11.50;95.90;;;;;;5022776;28;20383;-83
2021/12/24 10:44:26;;;;;;;;;;;11.50;96.00;;;;;;5004848;28;19923;-83
2021/12/24 10:46:58;;;;;;;;;;;11.50;95.80;;;;;;5004683;28;19919;-84
2021/12/24 10:49:51;;;;;;;;;;;11.60;95.90;;;;;;5004932;28;20377;-83
2021/12/24 10:52:30;;;;;;;;;;;11.50;95.90;;;;;;5007121;28;19909;-82
2021/12/24 10:54:58;;;;;;;;;;;11.60;95.80;;;;;;5029926;28;19913;-83
2021/12/24 10:57:25;;;;;;;;;;;11.60;95.90;;;;;;5008516;28;19916;-83
2021/12/24 10:59:54;;;;;;;;;;;11.60;96.00;;;;;;5013681;28;19917;-83
2021/12/24 11:02:24;;;;;;;;;;;11.60;96.10;;;;;;5007206;28;19928;-84
2021/12/24 11:04:53;;;;;;;;;;;11.70;96.10;;;;;;5030879;28;19915;-83
2021/12/24 11:07:41;;;;;;;;;;;11.70;95.60;;;;;;5006660;28;20508;-82
2021/12/24 11:10:12;;;;;;;;;;;11.70;95.70;;;;;;5031196;28;19923;-83
2021/12/24 11:12:43;;;;;;;;;;;11.70;95.60;;;;;;5028156;28;19912;-84
2021/12/24 11:15:25;;;;;;;;;;;11.70;95.60;;;;;;5014462;28;19912;-82
2021/12/24 11:17:52;;;;;;;;;;;11.70;95.90;;;;;;5036911;28;19908;-83
2021/12/24 11:20:20;;;;;;;;;;;11.70;95.90;;;;;;5023557;28;20129;-84
2021/12/24 11:23:04;;;;;;;;;;;11.80;95.90;;;;;;5011747;28;19936;-84
2021/12/24 11:25:32;;;;;;;;;;;11.70;95.70;;;;;;5012441;28;20101;-84
2021/12/24 11:27:59;;;;;;;;;;;11.80;95.70;;;;;;5020411;28;19909;-83
2021/12/24 11:30:27;;;;;;;;;;;11.80;95.80;;;;;;5014009;28;20567;-83
2021/12/24 11:32:54;;;;;;;;;;;11.80;95.90;;;;;;5017450;28;20141;-84
2021/12/24 11:35:21;;;;;;;;;;;11.80;95.70;;;;;;5022741;28;20407;-83
2021/12/24 11:37:48;;;;;;;;;;;11.80;95.90;;;;;;5019974;28;20276;-83
2021/12/24 11:40:16;;;;;;;;;;;11.80;95.90;;;;;;5015434;28;19917;-83
2021/12/24 11:42:46;;;;;;;;;;;11.80;95.70;;;;;;5016507;28;20366;-83
2021/12/24 11:45:13;;;;;;;;;;;11.90;95.80;;;;;;5015294;28;19909;-83
2021/12/24 11:47:40;;;;;;;;;;;11.90;95.80;;;;;;5018451;28;19924;-84
2021/12/24 11:50:07;;;;;;;;;;;11.90;95.90;;;;;;5023339;28;19927;-84
2021/12/24 11:52:34;;;;;;;;;;;11.90;95.90;;;;;;5017070;28;20090;-84
2021/12/24 11:55:01;;;;;;;;;;;12.00;95.90;;;;;;5018437;28;20350;-84
2021/12/24 11:57:28;;;;;;;;;;;11.90;95.90;;;;;;5023386;28;20309;-84
2021/12/24 11:59:55;;;;;;;;;;;11.90;95.90;;;;;;5012078;28;19915;-83
2021/12/24 12:02:45;;;;;;;;;;;11.90;95.90;;;;;;5009404;28;20546;-83
2021/12/24 12:05:16;;;;;;;;;;;11.90;95.90;;;;;;5020907;28;20595;-84
2021/12/24 12:07:44;;;;;;;;;;;11.90;96.00;;;;;;5036049;28;19916;-82
2021/12/24 12:10:11;;;;;;;;;;;11.90;95.80;;;;;;5013255;28;20798;-84
2021/12/24 12:12:40;;;;;;;;;;;11.90;95.90;;;;;;5028641;28;19923;-87
2021/12/24 12:15:24;;;;;;;;;;;11.90;95.70;;;;;;5005568;28;19913;-83
2021/12/24 12:17:52;;;;;;;;;;;11.90;95.80;;;;;;5015550;28;20281;-83
2021/12/24 12:20:43;;;;;;;;;;;11.90;95.80;;;;;;5032836;28;20231;-84
2021/12/24 12:23:30;;;;;;;;;;;11.90;95.90;;;;;;5020838;28;20109;-83
2021/12/24 12:25:58;;;;;;;;;;;12.00;95.90;;;;;;5015356;28;19915;-84
2021/12/24 12:28:26;;;;;;;;;;;12.00;95.90;;;;;;5015299;28;20665;-84
2021/12/24 12:30:54;;;;;;;;;;;12.00;95.90;;;;;;5011769;28;19912;-83
2021/12/24 12:33:30;;;;;;;;;;;11.90;96.00;;;;;;5014031;28;19943;-83
2021/12/24 12:36:02;;;;;;;;;;;12.00;96.00;;;;;;5031299;28;19913;-83
2021/12/24 12:38:33;;;;;;;;;;;12.00;96.00;;;;;;5024765;28;19919;-86
2021/12/24 12:41:19;;;;;;;;;;;12.10;96.10;;;;;;5001416;28;19913;-84
2021/12/24 12:43:46;;;;;;;;;;;12.00;96.10;;;;;;5016917;28;19913;-83
2021/12/24 12:46:23;;;;;;;;;;;12.10;96.20;;;;;;5004057;28;20810;-84
2021/12/24 12:48:51;;;;;;;;;;;12.10;96.10;;;;;;5011364;28;19912;-84
2021/12/24 12:51:19;;;;;;;;;;;12.10;96.00;;;;;;5026355;28;20192;-84
2021/12/24 12:53:48;;;;;;;;;;;12.10;96.10;;;;;;5033236;28;19913;-84
2021/12/24 12:56:17;;;;;;;;;;;12.10;96.00;;;;;;5019080;28;19935;-84
2021/12/24 12:58:46;;;;;;;;;;;12.10;96.00;;;;;;5022850;28;19913;-84
2021/12/24 13:01:18;;;;;;;;;;;12.10;95.90;;;;;;5005646;28;19913;-85
2021/12/24 13:03:57;;;;;;;;;;;12.10;95.90;;;;;;5010712;28;19917;-83
2021/12/24 13:06:36;;;;;;;;;;;12.10;96.00;;;;;;5033277;28;19915;-83
2021/12/24 13:09:04;;;;;;;;;;;12.10;96.00;;;;;;5033267;28;20365;-84
2021/12/24 13:11:35;;;;;;;;;;;12.20;96.00;;;;;;5034896;28;20386;-84
2021/12/24 13:14:02;;;;;;;;;;;12.20;96.00;;;;;;5020757;28;20635;-83
2021/12/24 13:16:37;;;;;;;;;;;12.20;96.10;;;;;;5019903;28;19913;-83
2021/12/24 13:24:44;;;;;;;;;;;12.30;96.20;;;;;;5021032;28;20013;-84
2021/12/24 13:27:11;;;;;;;;;;;12.30;96.10;;;;;;5034784;28;20154;-84
2021/12/24 13:29:38;;;;;;;;;;;12.30;96.10;;;;;;5023581;28;20418;-83
2021/12/24 13:32:05;;;;;;;;;;;12.30;96.20;;;;;;5020028;28;19917;-83
2021/12/24 13:34:32;;;;;;;;;;;12.30;96.10;;;;;;5008339;28;19917;-83
2021/12/24 13:37:09;;;;;;;;;;;12.30;96.20;;;;;;5042200;28;19915;-83
2021/12/24 13:39:43;;;;;;;;;;;12.40;96.30;;;;;;5030230;28;20013;-83
2021/12/24 13:42:10;;;;;;;;;;;12.50;96.50;;;;;;5021097;28;19916;-83
2021/12/24 13:44:39;;;;;;;;;;;12.70;96.80;;;;;;5018189;28;20451;-83
2021/12/24 13:47:25;;;;;;;;;;;12.80;96.90;;;;;;5030637;28;20415;-84
2021/12/24 13:50:22;;;;;;;;;;;13.00;97.00;;;;;;5012701;28;20990;-83
2021/12/24 13:55:31;;;;;;;;;;;13.30;96.80;;;;;;5021029;28;19922;-83
2021/12/24 13:58:00;;;;;;;;;;;13.40;96.60;;;;;;5026195;28;19912;-84
2021/12/24 14:00:28;;;;;;;;;;;13.40;96.30;;;;;;5019404;28;19917;-83
2021/12/24 14:02:56;;;;;;;;;;;13.30;95.80;;;;;;5038982;28;19918;-83
2021/12/24 14:05:23;;;;;;;;;;;13.30;95.70;;;;;;5004968;28;19909;-84
2021/12/24 14:08:03;;;;;;;;;;;13.30;95.50;;;;;;5018534;28;19942;-84
2021/12/24 14:10:30;;;;;;;;;;;13.20;95.50;;;;;;5010657;28;19928;-85
2021/12/24 14:13:04;;;;;;;;;;;13.20;95.40;;;;;;5030700;28;20281;-83
2021/12/24 14:15:42;;;;;;;;;;;13.10;95.30;;;;;;5013745;28;19913;-83
2021/12/24 14:18:32;;;;;;;;;;;13.00;95.20;;;;;;5019377;28;19913;-83
2021/12/24 14:23:26;;;;;;;;;;;12.90;95.10;;;;;;5018671;28;20098;-83
2021/12/24 14:25:58;;;;;;;;;;;12.80;95.00;;;;;;5040371;28;19917;-84
2021/12/24 14:28:25;;;;;;;;;;;12.80;94.90;;;;;;5023460;28;20406;-86
2021/12/24 14:30:59;;;;;;;;;;;12.80;94.90;;;;;;5015361;28;19916;-83
2021/12/24 14:33:27;;;;;;;;;;;12.70;95.00;;;;;;5008859;28;19921;-83
2021/12/24 14:35:54;;;;;;;;;;;12.60;95.00;;;;;;5017740;28;19909;-83
2021/12/24 14:38:24;;;;;;;;;;;12.60;95.10;;;;;;5016042;28;20917;-83
2021/12/24 14:40:56;;;;;;;;;;;12.60;95.20;;;;;;5031669;28;19918;-83
2021/12/24 14:43:23;;;;;;;;;;;12.60;95.00;;;;;;5012937;28;20365;-83
2021/12/24 14:45:52;;;;;;;;;;;12.50;94.80;;;;;;5035087;28;20159;-83
2021/12/24 14:48:21;;;;;;;;;;;12.50;94.80;;;;;;5003698;28;20395;-83
2021/12/24 14:50:48;;;;;;;;;;;12.50;94.90;;;;;;5014506;28;19917;-83
2021/12/24 14:53:18;;;;;;;;;;;12.40;95.00;;;;;;5012262;28;19924;-83
2021/12/24 14:55:46;;;;;;;;;;;12.40;95.10;;;;;;5019895;28;19923;-83
2021/12/24 14:58:13;;;;;;;;;;;12.40;95.20;;;;;;5029083;28;19908;-83
2021/12/24 15:00:41;;;;;;;;;;;12.40;95.30;;;;;;5022174;28;19935;-83
2021/12/24 15:03:13;;;;;;;;;;;12.40;95.30;;;;;;5021966;28;19917;-83
2021/12/24 15:05:42;;;;;;;;;;;12.30;95.20;;;;;;5011164;28;19913;-84
2021/12/24 15:08:19;;;;;;;;;;;12.30;95.20;;;;;;5003471;28;20309;-84
2021/12/24 15:11:08;;;;;;;;;;;12.30;95.20;;;;;;5032945;28;19921;-83
2021/12/24 15:13:53;;;;;;;;;;;12.30;95.30;;;;;;5028149;28;19908;-83
2021/12/24 15:16:25;;;;;;;;;;;12.30;95.30;;;;;;5020241;28;20091;-83
2021/12/24 15:18:53;;;;;;;;;;;12.30;95.40;;;;;;5029452;28;19915;-83
2021/12/24 15:21:21;;;;;;;;;;;12.30;95.40;;;;;;5006219;28;20091;-83
2021/12/24 15:23:48;;;;;;;;;;;12.30;95.40;;;;;;5020060;28;19915;-83
2021/12/24 15:26:15;;;;;;;;;;;12.30;95.30;;;;;;5024503;28;19908;-83
2021/12/24 15:28:43;;;;;;;;;;;12.20;95.50;;;;;;5033084;28;20135;-83
2021/12/24 15:31:10;;;;;;;;;;;12.20;95.50;;;;;;5003603;28;20412;-83
2021/12/24 15:33:38;;;;;;;;;;;12.20;95.50;;;;;;5029429;28;19927;-83
2021/12/24 15:36:05;;;;;;;;;;;12.20;95.50;;;;;;5009024;28;20362;-83
2021/12/24 15:38:32;;;;;;;;;;;12.20;95.40;;;;;;5004969;28;20346;-83
2021/12/24 15:40:59;;;;;;;;;;;12.20;95.40;;;;;;5027559;28;19935;-83
2021/12/24 15:43:26;;;;;;;;;;;12.20;95.40;;;;;;5018412;28;20223;-83
2021/12/24 15:45:53;;;;;;;;;;;12.10;95.30;;;;;;5022197;28;20269;-83
2021/12/24 15:48:21;;;;;;;;;;;12.20;95.40;;;;;;5030435;28;19998;-83
2021/12/24 15:50:49;;;;;;;;;;;12.10;95.40;;;;;;5006994;28;20501;-83
2021/12/24 15:53:16;;;;;;;;;;;12.10;95.50;;;;;;5015945;28;20290;-83
2021/12/24 15:55:43;;;;;;;;;;;12.10;95.40;;;;;;5010817;28;20116;-83
2021/12/24 15:58:10;;;;;;;;;;;12.10;95.40;;;;;;5025306;28;20268;-83
2021/12/24 16:00:42;;;;;;;;;;;12.10;95.40;;;;;;5013421;28;21017;-83
2021/12/24 16:03:10;;;;;;;;;;;12.10;95.50;;;;;;5025002;28;19917;-83
2021/12/24 16:05:36;;;;;;;;;;;12.00;95.40;;;;;;5015584;28;20293;-83
2021/12/24 16:08:03;;;;;;;;;;;12.00;95.40;;;;;;5007337;28;19917;-83
2021/12/24 16:10:31;;;;;;;;;;;12.00;95.40;;;;;;5021616;28;20400;-83
2021/12/24 16:12:58;;;;;;;;;;;12.00;95.40;;;;;;5017508;28;19917;-83
2021/12/24 16:15:26;;;;;;;;;;;12.00;95.40;;;;;;5020065;28;19969;-83
2021/12/24 16:17:53;;;;;;;;;;;11.90;95.40;;;;;;5034517;28;19913;-83
2021/12/24 16:20:20;;;;;;;;;;;12.00;95.40;;;;;;5027988;28;20041;-82